sensor_id;sensor_type;location;lat;lon;timestamp;temperature;humidity
32749;DHT22;19119;52.474;13.710;2023-09-19T00:00:21;18.20;99.90
32749;DHT22;19119;52.474;13.710;2023-09-19T00:02:55;18.20;99.90
32749;DHT22;19119;52.474;13.710;2023-09-19T00:05:24;18.20;99.90
32749;DHT22;19119;52.474;13.710;2023-09-19T00:07:51;18.20;99.90
32749;DHT22;19119;52.474;13.710;2023-09-19T00:10:21;18.10;99.90
32749;DHT22;19119;52.474;13.710;2023-09-19T00:12:47;18.00;99.90
32749;DHT22;19119;52.474;13.710;2023-09-19T00:15:13;18.00;99.90
32749;DHT22;19119;52.474;13.710;2023-09-19T00:17:38;18.00;99.90
32749;DHT22;19119;52.474;13.710;2023-09-19T00:20:06;17.90;99.90
32749;DHT22;19119;52.474;13.710;2023-09-19T00:22:34;17.90;99.90
32749;DHT22;19119;52.474;13.710;2023-09-19T00:24:59;17.90;99.90
32749;DHT22;19119;52.474;13.710;2023-09-19T00:27:26;17.90;99.90
32749;DHT22;19119;52.474;13.710;2023-09-19T00:29:51;17.90;99.90
32749;DHT22;19119;52.474;13.710;2023-09-19T00:32:18;17.90;99.90
32749;DHT22;19119;52.474;13.710;2023-09-19T00:34:43;17.90;99.90
32749;DHT22;19119;52.474;13.710;2023-09-19T00:37:09;17.90;99.90
32749;DHT22;19119;52.474;13.710;2023-09-19T00:39:36;17.90;99.90
32749;DHT22;19119;52.474;13.710;2023-09-19T00:42:02;17.80;99.90
32749;DHT22;19119;52.474;13.710;2023-09-19T00:44:30;17.80;99.90
32749;DHT22;19119;52.474;13.710;2023-09-19T00:46:55;17.80;99.90
32749;DHT22;19119;52.474;13.710;2023-09-19T00:49:21;17.80;99.90
32749;DHT22;19119;52.474;13.710;2023-09-19T00:51:48;17.70;99.90
32749;DHT22;19119;52.474;13.710;2023-09-19T00:54:14;17.70;99.90
32749;DHT22;19119;52.474;13.710;2023-09-19T00:56:44;17.70;99.90
32749;DHT22;19119;52.474;13.710;2023-09-19T00:59:10;17.70;99.90
32749;DHT22;19119;52.474;13.710;2023-09-19T01:01:37;17.60;99.90
32749;DHT22;19119;52.474;13.710;2023-09-19T01:04:05;17.60;99.90
32749;DHT22;19119;52.474;13.710;2023-09-19T01:06:31;17.60;99.90
32749;DHT22;19119;52.474;13.710;2023-09-19T01:08:57;17.50;99.90
32749;DHT22;19119;52.474;13.710;2023-09-19T01:11:35;17.50;99.90
32749;DHT22;19119;52.474;13.710;2023-09-19T01:14:23;17.40;99.90
32749;DHT22;19119;52.474;13.710;2023-09-19T01:22:40;17.50;99.90
32749;DHT22;19119;52.474;13.710;2023-09-19T01:25:18;17.50;99.90
32749;DHT22;19119;52.474;13.710;2023-09-19T01:30:35;17.40;99.90
32749;DHT22;19119;52.474;13.710;2023-09-19T01:33:01;17.30;99.90
32749;DHT22;19119;52.474;13.710;2023-09-19T01:35:29;17.30;99.90
32749;DHT22;19119;52.474;13.710;2023-09-19T01:37:55;17.20;99.90
32749;DHT22;19119;52.474;13.710;2023-09-19T01:40:21;17.20;99.90
32749;DHT22;19119;52.474;13.710;2023-09-19T01:42:59;17.20;99.90
32749;DHT22;19119;52.474;13.710;2023-09-19T01:45:44;17.20;99.90
32749;DHT22;19119;52.474;13.710;2023-09-19T01:48:34;17.10;99.90
32749;DHT22;19119;52.474;13.710;2023-09-19T01:51:03;17.20;99.90
32749;DHT22;19119;52.474;13.710;2023-09-19T01:53:44;17.10;99.90
32749;DHT22;19119;52.474;13.710;2023-09-19T01:56:34;17.20;99.90
32749;DHT22;19119;52.474;13.710;2023-09-19T01:59:06;17.20;99.90
32749;DHT22;19119;52.474;13.710;2023-09-19T02:01:34;17.20;99.90
32749;DHT22;19119;52.474;13.710;2023-09-19T02:04:02;17.20;99.90
32749;DHT22;19119;52.474;13.710;2023-09-19T02:06:28;17.30;99.90
32749;DHT22;19119;52.474;13.710;2023-09-19T02:08:54;17.30;99.90
32749;DHT22;19119;52.474;13.710;2023-09-19T02:11:20;17.30;99.90
32749;DHT22;19119;52.474;13.710;2023-09-19T02:13:46;17.40;99.90
32749;DHT22;19119;52.474;13.710;2023-09-19T02:16:12;17.30;99.90
32749;DHT22;19119;52.474;13.710;2023-09-19T02:18:38;17.30;99.90
32749;DHT22;19119;52.474;13.710;2023-09-19T02:21:04;17.40;99.90
32749;DHT22;19119;52.474;13.710;2023-09-19T02:23:32;17.30;99.90
32749;DHT22;19119;52.474;13.710;2023-09-19T02:25:59;17.20;99.90
32749;DHT22;19119;52.474;13.710;2023-09-19T02:28:26;17.20;99.90
32749;DHT22;19119;52.474;13.710;2023-09-19T02:30:55;17.20;99.90
32749;DHT22;19119;52.474;13.710;2023-09-19T02:33:21;17.20;99.90
32749;DHT22;19119;52.474;13.710;2023-09-19T02:35:47;17.20;99.90
32749;DHT22;19119;52.474;13.710;2023-09-19T02:38:12;17.20;99.90
32749;DHT22;19119;52.474;13.710;2023-09-19T02:40:38;17.20;99.90
32749;DHT22;19119;52.474;13.710;2023-09-19T02:43:04;17.20;99.90
32749;DHT22;19119;52.474;13.710;2023-09-19T02:45:30;17.20;99.90
32749;DHT22;19119;52.474;13.710;2023-09-19T02:47:56;17.20;99.90
32749;DHT22;19119;52.474;13.710;2023-09-19T02:50:22;17.10;99.90
32749;DHT22;19119;52.474;13.710;2023-09-19T02:52:48;17.10;99.90
32749;DHT22;19119;52.474;13.710;2023-09-19T02:55:16;17.10;99.90
32749;DHT22;19119;52.474;13.710;2023-09-19T02:57:50;17.10;99.90
32749;DHT22;19119;52.474;13.710;2023-09-19T03:00:17;17.10;99.90
32749;DHT22;19119;52.474;13.710;2023-09-19T03:02:46;17.20;99.90
32749;DHT22;19119;52.474;13.710;2023-09-19T03:05:12;17.10;99.90
32749;DHT22;19119;52.474;13.710;2023-09-19T03:07:37;17.10;99.90
32749;DHT22;19119;52.474;13.710;2023-09-19T03:10:07;17.10;99.90
32749;DHT22;19119;52.474;13.710;2023-09-19T03:12:33;17.10;99.90
32749;DHT22;19119;52.474;13.710;2023-09-19T03:14:59;17.10;99.90
32749;DHT22;19119;52.474;13.710;2023-09-19T03:17:25;17.10;99.90
32749;DHT22;19119;52.474;13.710;2023-09-19T03:19:50;17.00;99.90
32749;DHT22;19119;52.474;13.710;2023-09-19T03:22:16;17.10;99.90
32749;DHT22;19119;52.474;13.710;2023-09-19T03:24:41;17.10;99.90
32749;DHT22;19119;52.474;13.710;2023-09-19T03:27:09;17.00;99.90
32749;DHT22;19119;52.474;13.710;2023-09-19T03:29:35;17.00;99.90
32749;DHT22;19119;52.474;13.710;2023-09-19T03:32:01;16.90;99.90
32749;DHT22;19119;52.474;13.710;2023-09-19T03:34:27;16.90;99.90
32749;DHT22;19119;52.474;13.710;2023-09-19T03:36:52;16.90;99.90
32749;DHT22;19119;52.474;13.710;2023-09-19T03:39:18;16.80;99.90
32749;DHT22;19119;52.474;13.710;2023-09-19T03:41:43;16.80;99.90
32749;DHT22;19119;52.474;13.710;2023-09-19T03:44:10;16.90;99.90
32749;DHT22;19119;52.474;13.710;2023-09-19T03:46:35;16.70;99.90
32749;DHT22;19119;52.474;13.710;2023-09-19T03:49:01;16.80;99.90
32749;DHT22;19119;52.474;13.710;2023-09-19T03:51:28;16.70;99.90
32749;DHT22;19119;52.474;13.710;2023-09-19T03:53:53;16.80;99.90
32749;DHT22;19119;52.474;13.710;2023-09-19T03:56:19;16.80;99.90
32749;DHT22;19119;52.474;13.710;2023-09-19T03:58:44;16.80;99.90
32749;DHT22;19119;52.474;13.710;2023-09-19T04:01:10;16.80;99.90
32749;DHT22;19119;52.474;13.710;2023-09-19T04:03:35;16.80;99.90
32749;DHT22;19119;52.474;13.710;2023-09-19T04:06:15;16.80;99.90
32749;DHT22;19119;52.474;13.710;2023-09-19T04:08:41;16.80;99.90
32749;DHT22;19119;52.474;13.710;2023-09-19T04:11:07;16.70;99.90
32749;DHT22;19119;52.474;13.710;2023-09-19T04:13:32;16.70;99.90
32749;DHT22;19119;52.474;13.710;2023-09-19T04:15:58;16.70;99.90
32749;DHT22;19119;52.474;13.710;2023-09-19T04:18:24;16.70;99.90
32749;DHT22;19119;52.474;13.710;2023-09-19T04:20:51;16.70;99.90
32749;DHT22;19119;52.474;13.710;2023-09-19T04:23:16;16.70;99.90
32749;DHT22;19119;52.474;13.710;2023-09-19T04:25:43;16.70;99.90
32749;DHT22;19119;52.474;13.710;2023-09-19T04:28:08;16.70;99.90
32749;DHT22;19119;52.474;13.710;2023-09-19T04:30:36;16.70;99.90
32749;DHT22;19119;52.474;13.710;2023-09-19T04:33:02;16.70;99.90
32749;DHT22;19119;52.474;13.710;2023-09-19T04:35:28;16.70;99.90
32749;DHT22;19119;52.474;13.710;2023-09-19T04:37:56;16.80;99.90
32749;DHT22;19119;52.474;13.710;2023-09-19T04:40:22;16.70;99.90
32749;DHT22;19119;52.474;13.710;2023-09-19T04:42:56;16.70;99.90
32749;DHT22;19119;52.474;13.710;2023-09-19T04:45:23;16.70;99.90
32749;DHT22;19119;52.474;13.710;2023-09-19T04:47:48;16.70;99.90
32749;DHT22;19119;52.474;13.710;2023-09-19T04:50:14;16.70;99.90
32749;DHT22;19119;52.474;13.710;2023-09-19T04:52:41;16.60;99.90
32749;DHT22;19119;52.474;13.710;2023-09-19T04:55:13;16.60;99.90
32749;DHT22;19119;52.474;13.710;2023-09-19T04:57:45;16.60;99.90
32749;DHT22;19119;52.474;13.710;2023-09-19T05:00:19;16.60;99.90
32749;DHT22;19119;52.474;13.710;2023-09-19T05:02:52;16.60;99.90
32749;DHT22;19119;52.474;13.710;2023-09-19T05:05:18;16.60;99.90
32749;DHT22;19119;52.474;13.710;2023-09-19T05:07:45;16.60;99.90
32749;DHT22;19119;52.474;13.710;2023-09-19T05:10:11;16.60;99.90
32749;DHT22;19119;52.474;13.710;2023-09-19T05:12:38;16.50;99.90
32749;DHT22;19119;52.474;13.710;2023-09-19T05:15:04;16.50;99.90
32749;DHT22;19119;52.474;13.710;2023-09-19T05:17:31;16.50;99.90
32749;DHT22;19119;52.474;13.710;2023-09-19T05:19:57;16.50;99.90
32749;DHT22;19119;52.474;13.710;2023-09-19T05:22:26;16.50;99.90
32749;DHT22;19119;52.474;13.710;2023-09-19T05:24:52;16.50;99.90
32749;DHT22;19119;52.474;13.710;2023-09-19T05:27:18;16.50;99.90
32749;DHT22;19119;52.474;13.710;2023-09-19T05:29:44;16.50;99.90
32749;DHT22;19119;52.474;13.710;2023-09-19T05:32:13;16.50;99.90
32749;DHT22;19119;52.474;13.710;2023-09-19T05:34:38;16.50;99.90
32749;DHT22;19119;52.474;13.710;2023-09-19T05:37:05;16.60;99.90
32749;DHT22;19119;52.474;13.710;2023-09-19T05:39:33;16.50;99.90
32749;DHT22;19119;52.474;13.710;2023-09-19T05:41:59;16.60;99.90
32749;DHT22;19119;52.474;13.710;2023-09-19T05:44:25;16.60;99.90
32749;DHT22;19119;52.474;13.710;2023-09-19T05:46:51;16.60;99.90
32749;DHT22;19119;52.474;13.710;2023-09-19T05:49:17;16.50;99.90
32749;DHT22;19119;52.474;13.710;2023-09-19T05:51:42;16.60;99.90
32749;DHT22;19119;52.474;13.710;2023-09-19T05:54:08;16.60;99.90
32749;DHT22;19119;52.474;13.710;2023-09-19T05:56:34;16.60;99.90
32749;DHT22;19119;52.474;13.710;2023-09-19T05:59:00;16.60;99.90
32749;DHT22;19119;52.474;13.710;2023-09-19T06:01:26;16.60;99.90
32749;DHT22;19119;52.474;13.710;2023-09-19T06:03:52;16.60;99.90
32749;DHT22;19119;52.474;13.710;2023-09-19T06:06:18;16.60;99.90
32749;DHT22;19119;52.474;13.710;2023-09-19T06:08:44;16.60;99.90
32749;DHT22;19119;52.474;13.710;2023-09-19T06:11:10;16.60;99.90
32749;DHT22;19119;52.474;13.710;2023-09-19T06:13:36;16.70;99.90
32749;DHT22;19119;52.474;13.710;2023-09-19T06:16:03;16.80;99.90
32749;DHT22;19119;52.474;13.710;2023-09-19T06:18:31;16.80;99.90
32749;DHT22;19119;52.474;13.710;2023-09-19T06:20:59;17.00;99.90
32749;DHT22;19119;52.474;13.710;2023-09-19T06:23:25;17.00;99.90
32749;DHT22;19119;52.474;13.710;2023-09-19T06:25:54;17.00;99.90
32749;DHT22;19119;52.474;13.710;2023-09-19T06:28:20;17.00;99.90
32749;DHT22;19119;52.474;13.710;2023-09-19T06:30:50;17.20;99.90
32749;DHT22;19119;52.474;13.710;2023-09-19T06:33:15;17.20;99.90
32749;DHT22;19119;52.474;13.710;2023-09-19T06:35:42;17.30;99.90
32749;DHT22;19119;52.474;13.710;2023-09-19T06:38:10;17.30;99.90
32749;DHT22;19119;52.474;13.710;2023-09-19T06:40:36;17.40;99.90
32749;DHT22;19119;52.474;13.710;2023-09-19T06:43:02;17.40;99.90
32749;DHT22;19119;52.474;13.710;2023-09-19T06:45:29;17.50;99.90
32749;DHT22;19119;52.474;13.710;2023-09-19T06:47:54;17.50;99.90
32749;DHT22;19119;52.474;13.710;2023-09-19T06:50:23;17.50;99.90
32749;DHT22;19119;52.474;13.710;2023-09-19T06:52:50;17.50;99.90
32749;DHT22;19119;52.474;13.710;2023-09-19T06:55:18;17.50;99.90
32749;DHT22;19119;52.474;13.710;2023-09-19T06:57:45;17.50;99.90
32749;DHT22;19119;52.474;13.710;2023-09-19T07:00:12;17.60;99.90
32749;DHT22;19119;52.474;13.710;2023-09-19T07:02:44;17.60;99.90
32749;DHT22;19119;52.474;13.710;2023-09-19T07:05:10;17.70;99.90
32749;DHT22;19119;52.474;13.710;2023-09-19T07:07:36;17.80;99.90
32749;DHT22;19119;52.474;13.710;2023-09-19T07:10:05;17.90;99.90
32749;DHT22;19119;52.474;13.710;2023-09-19T07:12:31;17.80;99.90
32749;DHT22;19119;52.474;13.710;2023-09-19T07:14:58;17.90;99.90
32749;DHT22;19119;52.474;13.710;2023-09-19T07:17:23;18.00;99.90
32749;DHT22;19119;52.474;13.710;2023-09-19T07:19:49;18.20;99.90
32749;DHT22;19119;52.474;13.710;2023-09-19T07:22:15;18.30;99.90
32749;DHT22;19119;52.474;13.710;2023-09-19T07:24:41;18.50;99.90
32749;DHT22;19119;52.474;13.710;2023-09-19T07:27:07;18.80;99.90
32749;DHT22;19119;52.474;13.710;2023-09-19T07:29:32;19.00;99.90
32749;DHT22;19119;52.474;13.710;2023-09-19T07:31:58;19.30;99.90
32749;DHT22;19119;52.474;13.710;2023-09-19T07:34:23;19.60;99.90
32749;DHT22;19119;52.474;13.710;2023-09-19T07:36:49;19.70;99.90
32749;DHT22;19119;52.474;13.710;2023-09-19T07:39:15;20.20;99.90
32749;DHT22;19119;52.474;13.710;2023-09-19T07:41:41;20.60;99.90
32749;DHT22;19119;52.474;13.710;2023-09-19T07:44:07;20.50;99.90
32749;DHT22;19119;52.474;13.710;2023-09-19T07:46:33;20.80;99.90
32749;DHT22;19119;52.474;13.710;2023-09-19T07:48:58;21.10;99.90
32749;DHT22;19119;52.474;13.710;2023-09-19T07:51:25;21.20;99.90
32749;DHT22;19119;52.474;13.710;2023-09-19T07:53:52;21.20;99.90
32749;DHT22;19119;52.474;13.710;2023-09-19T07:56:18;20.60;99.90
32749;DHT22;19119;52.474;13.710;2023-09-19T07:58:45;20.60;99.90
32749;DHT22;19119;52.474;13.710;2023-09-19T08:01:11;20.50;99.90
32749;DHT22;19119;52.474;13.710;2023-09-19T08:03:39;20.60;99.90
32749;DHT22;19119;52.474;13.710;2023-09-19T08:06:06;20.60;99.90
32749;DHT22;19119;52.474;13.710;2023-09-19T08:08:33;20.50;99.90
32749;DHT22;19119;52.474;13.710;2023-09-19T08:11:08;20.70;99.90
32749;DHT22;19119;52.474;13.710;2023-09-19T08:13:37;20.40;99.90
32749;DHT22;19119;52.474;13.710;2023-09-19T08:16:04;20.30;99.90
32749;DHT22;19119;52.474;13.710;2023-09-19T08:18:30;20.70;99.90
32749;DHT22;19119;52.474;13.710;2023-09-19T08:20:56;21.20;99.90
32749;DHT22;19119;52.474;13.710;2023-09-19T08:23:24;20.90;99.90
32749;DHT22;19119;52.474;13.710;2023-09-19T08:25:49;20.70;99.90
32749;DHT22;19119;52.474;13.710;2023-09-19T08:28:15;20.50;99.90
32749;DHT22;19119;52.474;13.710;2023-09-19T08:30:45;20.50;99.80
32749;DHT22;19119;52.474;13.710;2023-09-19T08:33:11;20.70;99.90
32749;DHT22;19119;52.474;13.710;2023-09-19T08:35:36;20.70;99.30
32749;DHT22;19119;52.474;13.710;2023-09-19T08:38:05;21.00;99.90
32749;DHT22;19119;52.474;13.710;2023-09-19T08:40:31;21.20;99.70
32749;DHT22;19119;52.474;13.710;2023-09-19T08:42:59;20.90;99.80
32749;DHT22;19119;52.474;13.710;2023-09-19T08:45:25;20.60;99.30
32749;DHT22;19119;52.474;13.710;2023-09-19T08:50:31;20.40;99.90
32749;DHT22;19119;52.474;13.710;2023-09-19T08:53:02;20.50;99.90
32749;DHT22;19119;52.474;13.710;2023-09-19T08:55:34;21.00;99.90
32749;DHT22;19119;52.474;13.710;2023-09-19T08:58:03;21.30;98.50
32749;DHT22;19119;52.474;13.710;2023-09-19T09:00:30;21.70;98.50
32749;DHT22;19119;52.474;13.710;2023-09-19T09:02:57;22.10;98.10
32749;DHT22;19119;52.474;13.710;2023-09-19T09:05:24;22.60;97.60
32749;DHT22;19119;52.474;13.710;2023-09-19T09:07:52;22.80;97.90
32749;DHT22;19119;52.474;13.710;2023-09-19T09:10:21;23.10;96.80
32749;DHT22;19119;52.474;13.710;2023-09-19T09:12:53;23.20;96.90
32749;DHT22;19119;52.474;13.710;2023-09-19T09:15:22;22.80;97.10
32749;DHT22;19119;52.474;13.710;2023-09-19T09:17:49;22.40;97.10
32749;DHT22;19119;52.474;13.710;2023-09-19T09:20:19;22.30;97.20
32749;DHT22;19119;52.474;13.710;2023-09-19T09:22:52;21.90;97.50
32749;DHT22;19119;52.474;13.710;2023-09-19T09:25:19;21.60;97.30
32749;DHT22;19119;52.474;13.710;2023-09-19T09:27:58;21.60;98.40
32749;DHT22;19119;52.474;13.710;2023-09-19T09:30:35;22.20;97.30
32749;DHT22;19119;52.474;13.710;2023-09-19T09:33:12;22.50;96.70
32749;DHT22;19119;52.474;13.710;2023-09-19T09:36:09;23.30;96.90
32749;DHT22;19119;52.474;13.710;2023-09-19T09:38:52;23.80;95.60
32749;DHT22;19119;52.474;13.710;2023-09-19T09:41:37;23.60;94.80
32749;DHT22;19119;52.474;13.710;2023-09-19T09:44:15;23.70;95.70
32749;DHT22;19119;52.474;13.710;2023-09-19T09:46:43;23.60;94.70
32749;DHT22;19119;52.474;13.710;2023-09-19T09:49:25;23.40;95.20
32749;DHT22;19119;52.474;13.710;2023-09-19T09:52:07;22.70;94.40
32749;DHT22;19119;52.474;13.710;2023-09-19T09:54:35;22.00;94.90
32749;DHT22;19119;52.474;13.710;2023-09-19T09:57:09;22.30;95.10
32749;DHT22;19119;52.474;13.710;2023-09-19T09:59:48;23.00;94.10
32749;DHT22;19119;52.474;13.710;2023-09-19T10:02:20;23.00;94.30
32749;DHT22;19119;52.474;13.710;2023-09-19T10:04:54;23.20;93.50
32749;DHT22;19119;52.474;13.710;2023-09-19T10:07:40;23.20;93.60
32749;DHT22;19119;52.474;13.710;2023-09-19T10:10:32;23.80;93.20
32749;DHT22;19119;52.474;13.710;2023-09-19T10:13:13;24.00;93.10
32749;DHT22;19119;52.474;13.710;2023-09-19T10:15:42;24.00;93.00
32749;DHT22;19119;52.474;13.710;2023-09-19T10:18:15;24.60;93.20
32749;DHT22;19119;52.474;13.710;2023-09-19T10:20:47;23.90;92.90
32749;DHT22;19119;52.474;13.710;2023-09-19T10:23:15;23.50;92.60
32749;DHT22;19119;52.474;13.710;2023-09-19T10:25:46;23.50;92.70
32749;DHT22;19119;52.474;13.710;2023-09-19T10:28:14;22.80;93.40
32749;DHT22;19119;52.474;13.710;2023-09-19T10:30:45;22.60;93.90
32749;DHT22;19119;52.474;13.710;2023-09-19T10:33:14;22.00;94.00
32749;DHT22;19119;52.474;13.710;2023-09-19T10:35:43;22.00;94.80
32749;DHT22;19119;52.474;13.710;2023-09-19T10:38:13;22.10;94.30
32749;DHT22;19119;52.474;13.710;2023-09-19T10:40:39;21.70;94.30
32749;DHT22;19119;52.474;13.710;2023-09-19T10:43:15;21.50;94.30
32749;DHT22;19119;52.474;13.710;2023-09-19T10:45:45;21.90;95.90
32749;DHT22;19119;52.474;13.710;2023-09-19T10:48:15;22.70;93.80
32749;DHT22;19119;52.474;13.710;2023-09-19T10:51:02;22.90;93.10
32749;DHT22;19119;52.474;13.710;2023-09-19T10:53:43;23.00;93.20
32749;DHT22;19119;52.474;13.710;2023-09-19T10:56:15;23.90;92.60
32749;DHT22;19119;52.474;13.710;2023-09-19T10:58:43;23.50;91.70
32749;DHT22;19119;52.474;13.710;2023-09-19T11:01:11;23.20;91.90
32749;DHT22;19119;52.474;13.710;2023-09-19T11:03:38;23.60;92.70
32749;DHT22;19119;52.474;13.710;2023-09-19T11:06:19;23.70;91.60
32749;DHT22;19119;52.474;13.710;2023-09-19T11:11:39;24.20;92.20
32749;DHT22;19119;52.474;13.710;2023-09-19T11:30:47;24.30;89.20
32749;DHT22;19119;52.474;13.710;2023-09-19T11:33:25;24.90;90.30
32749;DHT22;19119;52.474;13.710;2023-09-19T11:36:09;24.30;89.10
32749;DHT22;19119;52.474;13.710;2023-09-19T11:46:24;23.30;90.70
32749;DHT22;19119;52.474;13.710;2023-09-19T11:48:51;23.80;90.50
32749;DHT22;19119;52.474;13.710;2023-09-19T11:51:24;23.50;90.40
32749;DHT22;19119;52.474;13.710;2023-09-19T11:53:57;23.90;89.70
32749;DHT22;19119;52.474;13.710;2023-09-19T11:56:25;24.80;90.10
32749;DHT22;19119;52.474;13.710;2023-09-19T11:58:55;25.50;89.60
32749;DHT22;19119;52.474;13.710;2023-09-19T12:01:23;25.30;88.30
32749;DHT22;19119;52.474;13.710;2023-09-19T12:03:54;24.60;87.30
32749;DHT22;19119;52.474;13.710;2023-09-19T12:06:20;24.00;89.20
32749;DHT22;19119;52.474;13.710;2023-09-19T12:08:47;23.50;88.60
32749;DHT22;19119;52.474;13.710;2023-09-19T12:11:14;23.20;89.50
32749;DHT22;19119;52.474;13.710;2023-09-19T12:13:45;23.10;89.20
32749;DHT22;19119;52.474;13.710;2023-09-19T12:16:16;23.20;90.00
32749;DHT22;19119;52.474;13.710;2023-09-19T12:18:42;23.40;90.50
32749;DHT22;19119;52.474;13.710;2023-09-19T12:21:31;23.10;90.20
32749;DHT22;19119;52.474;13.710;2023-09-19T12:24:11;23.20;90.00
32749;DHT22;19119;52.474;13.710;2023-09-19T12:26:43;23.30;90.60
32749;DHT22;19119;52.474;13.710;2023-09-19T12:29:27;23.40;90.20
32749;DHT22;19119;52.474;13.710;2023-09-19T12:31:54;23.20;90.00
32749;DHT22;19119;52.474;13.710;2023-09-19T12:34:27;23.20;89.70
32749;DHT22;19119;52.474;13.710;2023-09-19T12:37:12;23.60;90.20
32749;DHT22;19119;52.474;13.710;2023-09-19T12:39:41;23.60;90.30
32749;DHT22;19119;52.474;13.710;2023-09-19T12:42:13;23.40;89.60
32749;DHT22;19119;52.474;13.710;2023-09-19T12:44:41;23.20;90.40
32749;DHT22;19119;52.474;13.710;2023-09-19T12:47:10;23.20;90.40
32749;DHT22;19119;52.474;13.710;2023-09-19T12:49:36;23.20;90.50
32749;DHT22;19119;52.474;13.710;2023-09-19T12:52:02;23.50;89.90
32749;DHT22;19119;52.474;13.710;2023-09-19T12:54:40;23.70;88.50
32749;DHT22;19119;52.474;13.710;2023-09-19T12:57:06;24.10;88.90
32749;DHT22;19119;52.474;13.710;2023-09-19T12:59:31;24.10;88.20
32749;DHT22;19119;52.474;13.710;2023-09-19T13:02:04;23.80;89.50
32749;DHT22;19119;52.474;13.710;2023-09-19T13:04:39;24.60;90.20
32749;DHT22;19119;52.474;13.710;2023-09-19T13:07:07;24.50;87.20
32749;DHT22;19119;52.474;13.710;2023-09-19T13:09:34;24.20;87.90
32749;DHT22;19119;52.474;13.710;2023-09-19T13:12:00;24.50;88.80
32749;DHT22;19119;52.474;13.710;2023-09-19T13:14:28;24.00;87.70
32749;DHT22;19119;52.474;13.710;2023-09-19T13:19:40;23.90;87.80
32749;DHT22;19119;52.474;13.710;2023-09-19T13:25:17;23.80;89.40
32749;DHT22;19119;52.474;13.710;2023-09-19T13:27:45;23.60;89.40
32749;DHT22;19119;52.474;13.710;2023-09-19T13:30:12;23.80;89.00
32749;DHT22;19119;52.474;13.710;2023-09-19T13:32:38;23.80;88.60
32749;DHT22;19119;52.474;13.710;2023-09-19T13:35:06;23.90;88.40
32749;DHT22;19119;52.474;13.710;2023-09-19T13:37:34;23.70;89.10
32749;DHT22;19119;52.474;13.710;2023-09-19T13:40:09;22.70;89.30
32749;DHT22;19119;52.474;13.710;2023-09-19T13:42:36;22.50;89.00
32749;DHT22;19119;52.474;13.710;2023-09-19T13:45:02;22.90;89.00
32749;DHT22;19119;52.474;13.710;2023-09-19T13:47:30;22.60;89.30
32749;DHT22;19119;52.474;13.710;2023-09-19T13:49:56;22.20;89.30
32749;DHT22;19119;52.474;13.710;2023-09-19T13:52:22;22.00;90.20
32749;DHT22;19119;52.474;13.710;2023-09-19T13:54:51;21.90;90.50
32749;DHT22;19119;52.474;13.710;2023-09-19T13:57:18;22.10;91.00
32749;DHT22;19119;52.474;13.710;2023-09-19T13:59:43;22.10;90.20
32749;DHT22;19119;52.474;13.710;2023-09-19T14:02:09;22.20;91.10
32749;DHT22;19119;52.474;13.710;2023-09-19T14:04:35;22.50;90.80
32749;DHT22;19119;52.474;13.710;2023-09-19T14:07:01;22.60;90.60
32749;DHT22;19119;52.474;13.710;2023-09-19T14:09:27;22.50;90.70
32749;DHT22;19119;52.474;13.710;2023-09-19T14:11:52;22.40;90.30
32749;DHT22;19119;52.474;13.710;2023-09-19T14:14:19;22.20;90.00
32749;DHT22;19119;52.474;13.710;2023-09-19T14:16:46;22.20;89.40
32749;DHT22;19119;52.474;13.710;2023-09-19T14:19:11;22.00;90.00
32749;DHT22;19119;52.474;13.710;2023-09-19T14:21:37;22.10;90.40
32749;DHT22;19119;52.474;13.710;2023-09-19T14:24:04;22.10;90.20
32749;DHT22;19119;52.474;13.710;2023-09-19T14:26:37;22.20;90.30
32749;DHT22;19119;52.474;13.710;2023-09-19T14:29:02;22.10;90.40
32749;DHT22;19119;52.474;13.710;2023-09-19T14:31:28;22.00;90.00
32749;DHT22;19119;52.474;13.710;2023-09-19T14:33:57;22.10;90.40
32749;DHT22;19119;52.474;13.710;2023-09-19T14:36:25;22.20;90.50
32749;DHT22;19119;52.474;13.710;2023-09-19T14:38:54;22.10;90.90
32749;DHT22;19119;52.474;13.710;2023-09-19T14:41:20;21.90;90.30
32749;DHT22;19119;52.474;13.710;2023-09-19T14:43:46;21.80;90.40
32749;DHT22;19119;52.474;13.710;2023-09-19T14:46:12;21.80;90.70
32749;DHT22;19119;52.474;13.710;2023-09-19T14:48:38;21.50;90.50
32749;DHT22;19119;52.474;13.710;2023-09-19T14:51:05;21.50;91.30
32749;DHT22;19119;52.474;13.710;2023-09-19T14:53:31;21.50;91.10
32749;DHT22;19119;52.474;13.710;2023-09-19T14:56:00;21.50;91.20
32749;DHT22;19119;52.474;13.710;2023-09-19T14:58:25;21.50;91.40
32749;DHT22;19119;52.474;13.710;2023-09-19T15:01:03;21.40;91.50
32749;DHT22;19119;52.474;13.710;2023-09-19T15:03:28;21.30;91.60
32749;DHT22;19119;52.474;13.710;2023-09-19T15:05:59;21.30;91.60
32749;DHT22;19119;52.474;13.710;2023-09-19T15:08:25;21.20;91.50
32749;DHT22;19119;52.474;13.710;2023-09-19T15:10:51;21.10;91.50
32749;DHT22;19119;52.474;13.710;2023-09-19T15:13:18;21.00;91.60
32749;DHT22;19119;52.474;13.710;2023-09-19T15:15:44;21.00;91.50
32749;DHT22;19119;52.474;13.710;2023-09-19T15:18:12;21.00;91.80
32749;DHT22;19119;52.474;13.710;2023-09-19T15:20:45;21.00;91.90
32749;DHT22;19119;52.474;13.710;2023-09-19T15:23:11;21.00;91.50
32749;DHT22;19119;52.474;13.710;2023-09-19T15:25:38;21.00;91.60
32749;DHT22;19119;52.474;13.710;2023-09-19T15:28:05;20.90;91.60
32749;DHT22;19119;52.474;13.710;2023-09-19T15:30:37;21.00;91.60
32749;DHT22;19119;52.474;13.710;2023-09-19T15:33:03;20.90;92.00
32749;DHT22;19119;52.474;13.710;2023-09-19T15:35:29;20.80;91.80
32749;DHT22;19119;52.474;13.710;2023-09-19T15:37:54;20.90;92.30
32749;DHT22;19119;52.474;13.710;2023-09-19T15:40:21;20.80;92.10
32749;DHT22;19119;52.474;13.710;2023-09-19T15:42:49;20.70;92.30
32749;DHT22;19119;52.474;13.710;2023-09-19T15:45:15;20.70;92.10
32749;DHT22;19119;52.474;13.710;2023-09-19T15:47:42;20.70;92.10
32749;DHT22;19119;52.474;13.710;2023-09-19T15:50:08;20.70;92.30
32749;DHT22;19119;52.474;13.710;2023-09-19T15:52:41;20.60;92.40
32749;DHT22;19119;52.474;13.710;2023-09-19T15:55:07;20.60;92.80
32749;DHT22;19119;52.474;13.710;2023-09-19T15:57:36;20.70;92.40
32749;DHT22;19119;52.474;13.710;2023-09-19T16:00:03;20.50;92.40
32749;DHT22;19119;52.474;13.710;2023-09-19T16:02:36;20.50;92.40
32749;DHT22;19119;52.474;13.710;2023-09-19T16:05:01;20.40;92.60
32749;DHT22;19119;52.474;13.710;2023-09-19T16:07:32;20.40;93.20